Terminal Aerodrome Forecast
Issued by NWS

Home | Current Version | Previous Version | Text Only | Print | Product List | Glossary On
Versions: 1 2 3 4 5 6 7 8 9 10 11 12 13 14 15 16 17 18 19
000
FTUS41 KILN 231740
TAFLUK
TAF
KLUK 231740Z 2318/2418 13008KT P6SM SCT100
     FM232100 17009KT P6SM OVC090
     FM240500 20006KT P6SM BKN180 WS020/21040KT
     FM241300 20010KT P6SM OVC040=

USA.gov is the U.S. government's official web portal to all federal, state and local government web resources and services.